Weather at Phu Tho Municipal Airport [CLOSED]

Public forecast

Using degrees Celsius for public forecast. Weather courtesy of forecast.io.

Closest aviation weather report (METAR) to Phu Tho Municipal Airport

Closest report is Noi Bai International Airport, 35.1 nm (65.1 km) ESE.

2024/07/21 11:00 (retrieved 25 minutes ago)

VVNB 211100Z 06008KT 020V090 9999 FEW030CB SCT040 33/26 Q1002 TEMPO 4000 SHRA

Closest aviation forecast (TAF) to Phu Tho Municipal Airport

Closest forecast is Noi Bai International Airport, 35.1 nm (65.1 km) ESE.

2024/07/21 06:37 (retrieved 5 hours ago)

TAF VVNB 210500Z 2106/2206 05007KT 9999 FEW020 TEMPO 2108/2114 3500 TSRA BKN012 FEW027CB TEMPO 2118/2124 3500 TSRA BKN012 FEW027CB